createdAt,value
2018-12-11T13:25:19.633Z,80.55
2018-12-11T13:26:17.438Z,80.16
2018-12-11T13:27:06.486Z,79.48
2018-12-11T13:27:44.238Z,80.56
2018-12-11T13:28:22.752Z,79.54
2018-12-11T13:29:00.146Z,80.29
2018-12-11T13:29:37.422Z,79.32
2018-12-11T13:30:28.463Z,79.21
2018-12-11T13:31:18.575Z,80.18
2018-12-11T13:32:10.928Z,79.79
2018-12-11T13:33:02.807Z,79.43
2018-12-11T13:33:55.453Z,79.83
2018-12-11T13:34:43.995Z,79.13
2018-12-11T13:35:20.804Z,80.02
2018-12-11T13:35:57.825Z,79.71
2018-12-11T13:36:34.729Z,79.30
2018-12-11T13:37:16.136Z,79.77
2018-12-11T13:38:15.923Z,79.69
2018-12-11T13:39:05.752Z,79.81
2018-12-11T13:40:00.860Z,79.40
2018-12-11T13:40:59.453Z,78.63
2018-12-11T13:41:47.714Z,79.26
2018-12-11T13:42:40.941Z,79.33
2018-12-11T13:43:18.169Z,79.93
2018-12-11T13:44:09.547Z,79.98
2018-12-11T13:44:59.618Z,78.80
2018-12-11T13:45:48.577Z,78.68
2018-12-11T13:46:42.524Z,79.77
2018-12-11T13:47:29.216Z,79.45
2018-12-11T13:48:23.391Z,78.98
2018-12-11T13:49:13.094Z,79.60
2018-12-11T13:50:02.820Z,78.60
2018-12-11T13:50:40.755Z,79.30
2018-12-11T13:51:22.284Z,79.15
2018-12-11T13:52:08.543Z,79.50
2018-12-11T13:52:56.371Z,79.75
2018-12-11T13:53:44.844Z,79.06
2018-12-11T13:54:34.289Z,79.33
2018-12-11T13:55:24.840Z,79.67
2018-12-11T13:56:16.680Z,79.59
2018-12-11T13:56:59.433Z,79.77
2018-12-11T13:57:48.838Z,78.79
2018-12-11T13:58:38.523Z,79.21
2018-12-11T13:59:29.425Z,79.90
2018-12-11T14:00:23.837Z,80.00
2018-12-11T14:01:13.386Z,80.23
2018-12-11T14:01:59.845Z,79.93
2018-12-11T14:02:52.181Z,80.44
2018-12-11T14:03:41.687Z,79.47
2018-12-11T14:04:31.236Z,79.66
2018-12-11T14:05:12.115Z,80.05
2018-12-11T14:06:00.040Z,79.14
2018-12-11T14:06:50.717Z,79.22
2018-12-11T14:07:38.415Z,79.91
2018-12-11T14:08:28.435Z,80.25
2018-12-11T14:09:18.330Z,79.75
2018-12-11T14:10:08.144Z,80.25
2018-12-11T14:10:59.691Z,80.68
2018-12-11T14:11:57.422Z,79.50
2018-12-11T14:12:48.593Z,79.76
2018-12-11T14:13:42.227Z,79.75
2018-12-11T14:14:26.300Z,79.21
2018-12-11T14:15:03.782Z,79.94
2018-12-11T14:15:41.112Z,80.23
2018-12-11T14:16:18.371Z,79.35
2018-12-11T14:16:55.464Z,80.47
2018-12-11T14:17:32.746Z,79.89
2018-12-11T14:18:10.857Z,79.91
2018-12-11T14:18:56.876Z,79.89
2018-12-11T14:19:51.304Z,80.81
2018-12-11T14:20:40.666Z,80.19
2018-12-11T14:21:33.927Z,80.87
2018-12-11T14:22:25.317Z,80.16
2018-12-11T14:23:18.306Z,81.23
2018-12-11T14:23:55.564Z,80.51
2018-12-11T14:24:39.527Z,80.04
2018-12-11T14:25:27.276Z,80.23
2018-12-11T14:26:16.535Z,80.78
2018-12-11T14:27:08.265Z,80.96
2018-12-11T14:27:54.411Z,80.73
2018-12-11T14:28:42.822Z,79.99
2018-12-11T14:29:29.281Z,81.46
2018-12-11T14:30:10.887Z,80.52
2018-12-11T14:30:48.175Z,81.27
2018-12-11T14:31:36.972Z,80.94
2018-12-11T14:32:27.917Z,80.60
2018-12-11T14:33:21.042Z,80.90
2018-12-11T14:34:09.551Z,81.70
2018-12-11T14:34:58.968Z,81.17
2018-12-11T14:35:48.122Z,81.17
2018-12-11T14:36:25.197Z,81.18
2018-12-11T14:37:02.398Z,81.17
2018-12-11T14:37:39.485Z,80.70
2018-12-11T14:38:16.414Z,81.28
2018-12-11T14:38:53.357Z,80.76
2018-12-11T14:39:31.321Z,81.33
2018-12-11T14:40:08.668Z,80.84
2018-12-11T14:40:45.431Z,81.76
2018-12-11T14:41:22.326Z,80.76
2018-12-11T14:41:59.271Z,81.03
2018-12-11T14:42:36.141Z,81.83
2018-12-11T14:43:17.338Z,81.76
2018-12-11T14:43:56.893Z,81.81
2018-12-11T14:44:35.169Z,81.58
2018-12-11T14:45:15.472Z,80.47
2018-12-11T14:45:54.852Z,80.62
2018-12-11T14:46:32.731Z,81.63
2018-12-11T14:47:11.818Z,81.12
2018-12-11T14:47:51.766Z,81.07
2018-12-11T14:48:31.738Z,80.77
2018-12-11T14:49:10.070Z,81.70
2018-12-11T14:49:49.064Z,81.22
2018-12-11T14:50:26.815Z,81.02
2018-12-11T14:51:04.504Z,81.70
2018-12-11T14:51:42.601Z,80.95
2018-12-11T14:52:20.074Z,81.02
2018-12-11T14:52:57.493Z,80.78
2018-12-11T14:53:37.141Z,80.98
2018-12-11T14:54:14.339Z,82.03
2018-12-11T14:54:57.372Z,81.31
2018-12-11T14:55:34.483Z,81.83
2018-12-11T14:56:11.906Z,81.43
2018-12-11T14:56:48.908Z,80.83
2018-12-11T14:57:30.968Z,81.21
2018-12-11T14:58:05.184Z,81.80
2018-12-11T14:58:42.133Z,81.85
2018-12-11T14:59:18.999Z,82.33
2018-12-11T14:59:55.857Z,81.88
2018-12-11T15:00:32.958Z,81.02
2018-12-11T15:01:11.279Z,82.60
2018-12-11T15:01:54.093Z,81.48
2018-12-11T15:04:09.942Z,81.83
2018-12-11T15:04:54.224Z,82.57
2018-12-11T15:05:42.857Z,82.43
2018-12-11T15:06:26.952Z,81.51
2018-12-11T15:07:10.686Z,82.85
2018-12-11T15:07:57.081Z,81.91
2018-12-11T15:08:48.193Z,81.75
2018-12-11T15:09:39.462Z,83.17
2018-12-11T15:11:15.648Z,82.65
2018-12-11T15:11:52.821Z,82.92
2018-12-11T15:12:29.663Z,82.98
2018-12-11T15:13:06.569Z,83.47
2018-12-11T15:13:43.940Z,82.05
2018-12-11T15:14:23.777Z,82.82
2018-12-11T15:15:06.342Z,83.49
2018-12-11T15:15:46.841Z,82.41
2018-12-11T15:16:24.333Z,82.90
2018-12-11T15:17:01.808Z,83.32
2018-12-11T15:17:38.622Z,82.84
2018-12-11T15:18:15.433Z,82.91
2018-12-11T15:18:54.404Z,82.79
2018-12-11T15:19:32.281Z,82.59
2018-12-11T15:20:10.672Z,82.40
2018-12-11T15:20:47.828Z,83.40
2018-12-11T15:21:24.812Z,82.04
2018-12-11T15:22:01.646Z,83.14
2018-12-11T15:22:39.200Z,82.60
2018-12-11T15:23:16.205Z,82.21
2018-12-11T15:23:53.152Z,82.13
2018-12-11T15:24:30.165Z,82.65
2018-12-11T15:25:07.325Z,81.83
2018-12-11T15:25:44.566Z,82.49
2018-12-11T15:26:21.477Z,82.60
2018-12-11T15:26:58.478Z,81.71
2018-12-11T15:27:35.430Z,82.49
2018-12-11T15:28:12.252Z,81.67
2018-12-11T15:28:49.075Z,82.09
2018-12-11T15:29:25.919Z,82.74
2018-12-11T15:30:02.724Z,82.57
2018-12-11T15:30:44.140Z,82.50
2018-12-11T15:31:20.989Z,82.46
2018-12-11T15:31:58.748Z,82.80
2018-12-11T15:32:35.619Z,82.76
2018-12-11T15:33:12.488Z,82.58
2018-12-11T15:33:49.485Z,83.07
2018-12-11T15:34:26.652Z,81.82
2018-12-11T15:35:03.847Z,82.08
2018-12-11T15:35:40.792Z,82.39
2018-12-11T15:36:18.417Z,83.11
2018-12-11T15:36:55.279Z,82.54
2018-12-11T15:37:32.137Z,82.98
2018-12-11T15:38:09.026Z,82.55
2018-12-11T15:38:45.849Z,82.50
2018-12-11T15:39:22.749Z,82.44
2018-12-11T15:39:59.597Z,82.26
2018-12-11T15:40:36.423Z,81.87
2018-12-11T15:41:13.270Z,83.10
2018-12-11T15:41:50.113Z,83.30
2018-12-11T15:42:26.835Z,82.02
2018-12-11T15:43:03.852Z,82.59
2018-12-11T15:43:40.870Z,82.35
2018-12-11T15:44:19.002Z,83.18
2018-12-11T15:44:55.950Z,82.51
2018-12-11T15:45:33.065Z,82.56
2018-12-11T15:46:10.948Z,82.56
2018-12-11T15:46:48.597Z,82.51
2018-12-11T15:47:32.182Z,82.67
2018-12-11T15:48:14.625Z,82.49
2018-12-11T15:48:54.236Z,82.56
2018-12-11T15:49:33.293Z,82.42
2018-12-11T15:50:17.013Z,82.51
2018-12-11T15:50:58.541Z,82.73
2018-12-11T15:51:45.335Z,83.14
2018-12-11T15:52:24.167Z,82.01
2018-12-11T15:53:05.358Z,82.21
2018-12-11T15:53:51.347Z,82.34
2018-12-11T15:54:35.574Z,82.60
2018-12-11T15:55:17.407Z,82.24
2018-12-11T15:56:00.439Z,82.37
2018-12-11T15:56:47.389Z,82.42
2018-12-11T15:57:31.045Z,81.94
2018-12-11T15:58:11.553Z,83.27
2018-12-11T15:58:50.211Z,82.47
2018-12-11T15:59:31.571Z,83.30
2018-12-11T16:00:10.693Z,82.66
2018-12-11T16:00:54.608Z,82.54
2018-12-11T16:01:32.399Z,82.79
2018-12-11T16:02:10.369Z,82.20
2018-12-11T16:02:51.423Z,82.52
2018-12-11T16:03:31.720Z,82.82
2018-12-11T16:04:14.721Z,82.22
2018-12-11T16:04:52.839Z,83.47
2018-12-11T16:05:36.217Z,82.86
2018-12-11T16:06:15.872Z,83.11
2018-12-11T16:06:55.117Z,83.32
2018-12-11T16:07:35.353Z,83.52
2018-12-11T16:11:31.242Z,82.94
2018-12-11T16:12:09.403Z,83.71
2018-12-11T16:12:49.700Z,83.83
2018-12-11T16:13:29.450Z,82.78
2018-12-11T16:14:12.689Z,83.11
2018-12-11T16:14:52.875Z,83.77
2018-12-11T16:15:30.507Z,84.13
2018-12-11T16:16:08.918Z,83.00
2018-12-11T16:16:49.289Z,83.53
2018-12-11T16:17:27.962Z,84.16
2018-12-11T16:18:08.694Z,83.21
2018-12-11T16:18:49.706Z,82.91
2018-12-11T16:19:32.608Z,83.20
2018-12-11T16:21:12.679Z,83.66
2018-12-11T16:21:50.075Z,83.58
2018-12-11T16:22:27.350Z,83.62
2018-12-11T16:23:04.675Z,84.05
2018-12-11T16:23:49.599Z,84.39
2018-12-11T16:24:27.132Z,83.72
2018-12-11T16:25:04.338Z,83.09
2018-12-11T16:25:42.602Z,83.82
2018-12-11T16:26:24.437Z,84.32
2018-12-11T16:27:01.458Z,83.67
2018-12-11T16:27:39.120Z,83.63
2018-12-11T16:28:17.149Z,84.21
2018-12-11T16:28:59.114Z,83.53
2018-12-11T16:29:36.866Z,84.55
2018-12-11T16:30:16.477Z,84.52
2018-12-11T16:30:54.244Z,84.54
2018-12-11T16:31:36.578Z,84.18
2018-12-11T16:32:13.983Z,83.16
2018-12-11T16:32:57.716Z,84.40
2018-12-11T16:33:39.847Z,84.59
2018-12-11T16:34:23.739Z,83.28
2018-12-11T16:35:07.584Z,84.46
2018-12-11T16:35:45.403Z,83.42
2018-12-11T16:36:22.899Z,84.26
2018-12-11T16:37:01.722Z,83.74
2018-12-11T16:37:41.037Z,84.01
2018-12-11T16:38:19.041Z,83.37
2018-12-11T16:39:00.355Z,84.47
2018-12-11T16:39:43.815Z,84.25
2018-12-11T16:40:26.302Z,84.69
2018-12-11T16:41:04.608Z,83.79
2018-12-11T16:41:43.893Z,84.07
2018-12-11T16:42:24.779Z,83.40
2018-12-11T16:43:01.771Z,84.25
2018-12-11T16:43:39.033Z,84.04
2018-12-11T16:44:15.882Z,84.06
2018-12-11T16:44:53.610Z,84.68
2018-12-11T16:45:30.541Z,84.50
2018-12-11T16:46:07.470Z,84.09
2018-12-11T16:46:45.053Z,83.90
2018-12-11T16:47:21.913Z,84.39
2018-12-11T16:48:06.968Z,84.28
2018-12-11T16:48:45.432Z,84.02
2018-12-11T16:49:24.041Z,84.29
2018-12-11T16:50:18.103Z,83.33
2018-12-11T16:53:53.296Z,84.53
2018-12-11T16:54:30.166Z,84.28
2018-12-11T16:55:07.124Z,84.68
2018-12-11T16:55:43.952Z,83.99
2018-12-11T16:56:20.841Z,84.43
2018-12-11T16:56:57.808Z,83.63
2018-12-11T16:57:34.595Z,83.77
2018-12-11T16:58:11.547Z,84.57
2018-12-11T16:58:48.460Z,84.78
2018-12-11T16:59:25.407Z,84.12
2018-12-11T17:00:02.285Z,84.86
2018-12-11T17:00:39.325Z,84.68
2018-12-11T17:01:16.352Z,83.83
2018-12-11T17:01:53.180Z,83.53
2018-12-11T17:02:30.091Z,83.72
2018-12-11T17:03:07.049Z,84.47
2018-12-11T17:03:44.118Z,83.80
2018-12-11T17:04:20.926Z,84.50
2018-12-11T17:04:57.853Z,84.48
2018-12-11T17:05:34.824Z,84.17
2018-12-11T17:06:11.716Z,83.56
2018-12-11T17:06:48.576Z,83.72
2018-12-11T17:07:25.666Z,84.02
2018-12-11T17:08:02.597Z,84.81
2018-12-11T17:08:39.445Z,83.41
2018-12-11T17:09:19.580Z,83.72
2018-12-11T17:09:56.413Z,83.46
2018-12-11T17:10:33.424Z,83.72
2018-12-11T17:11:10.248Z,83.97
2018-12-11T17:11:47.022Z,84.82
2018-12-11T17:12:23.815Z,83.95
2018-12-11T17:13:00.725Z,84.56
2018-12-11T17:13:37.574Z,83.83
2018-12-11T17:14:15.378Z,83.21
2018-12-11T17:14:58.644Z,84.70
2018-12-11T17:15:35.861Z,83.52
2018-12-11T17:16:12.886Z,84.68
2018-12-11T17:16:49.680Z,84.76
2018-12-11T17:17:26.649Z,84.59
2018-12-11T17:18:03.507Z,84.00
2018-12-11T17:18:41.829Z,84.48
2018-12-11T17:19:18.856Z,84.60
2018-12-11T17:19:55.824Z,83.60
2018-12-11T17:20:32.941Z,84.69
2018-12-11T17:21:09.909Z,85.00
2018-12-11T17:21:47.087Z,83.96
2018-12-11T17:22:24.218Z,84.22
2018-12-11T17:23:01.211Z,84.43
2018-12-11T17:23:37.979Z,84.03
2018-12-11T17:24:14.848Z,84.55
2018-12-11T17:24:51.708Z,84.10
2018-12-11T17:25:28.598Z,84.28
2018-12-11T17:26:06.481Z,83.79
2018-12-11T17:26:43.328Z,84.63
2018-12-11T17:27:20.152Z,83.87
2018-12-11T17:27:56.968Z,85.24
2018-12-11T17:28:33.802Z,84.79
2018-12-11T17:29:10.601Z,84.00
2018-12-11T17:29:47.449Z,84.78
2018-12-11T17:30:24.217Z,83.94
2018-12-11T17:31:01.168Z,85.16
2018-12-11T17:31:38.269Z,84.47
2018-12-11T17:32:15.111Z,83.87
2018-12-11T17:32:52.065Z,84.86
2018-12-11T17:33:28.920Z,84.87
2018-12-11T17:34:05.933Z,84.43
2018-12-11T17:34:42.890Z,85.19
2018-12-11T17:35:19.858Z,84.44
2018-12-11T17:35:56.783Z,85.10
2018-12-11T17:36:33.642Z,84.84
2018-12-11T17:37:10.698Z,83.82
2018-12-11T17:37:47.504Z,84.60
2018-12-11T17:38:24.397Z,83.89
2018-12-11T17:39:01.113Z,84.75
2018-12-11T17:39:38.106Z,83.72
2018-12-11T17:40:14.913Z,83.93
2018-12-11T17:40:51.695Z,85.12
2018-12-11T17:41:28.588Z,84.22
2018-12-11T17:42:05.464Z,85.11
2018-12-11T17:42:42.336Z,84.18
2018-12-11T17:43:19.217Z,83.71
2018-12-11T17:43:56.017Z,84.30
2018-12-11T17:44:33.968Z,85.23
2018-12-11T17:45:11.641Z,84.57
2018-12-11T17:45:48.578Z,84.33
2018-12-11T17:46:25.444Z,84.88
2018-12-11T17:47:02.294Z,84.83
2018-12-11T17:47:39.103Z,83.90
2018-12-11T17:48:16.049Z,84.60
2018-12-11T17:48:52.939Z,84.61
2018-12-11T17:49:29.700Z,84.76
2018-12-11T17:50:07.276Z,84.39
2018-12-11T17:50:44.681Z,84.49
2018-12-11T17:51:21.523Z,84.45
2018-12-11T17:51:58.385Z,84.57
2018-12-11T17:52:35.352Z,83.83
2018-12-11T17:53:12.239Z,84.96
2018-12-11T17:53:49.243Z,83.83
2018-12-11T17:54:26.084Z,85.10
2018-12-11T17:55:02.934Z,84.87
2018-12-11T17:55:39.649Z,83.91
2018-12-11T17:56:16.443Z,83.87
2018-12-11T17:56:53.745Z,85.29
2018-12-11T17:57:30.600Z,85.15
2018-12-11T17:58:07.493Z,84.50
2018-12-11T17:58:44.455Z,85.06
2018-12-11T17:59:21.379Z,84.05
2018-12-11T17:59:58.289Z,84.49
2018-12-11T18:00:35.164Z,85.19
2018-12-11T18:01:12.281Z,85.12
2018-12-11T18:01:52.296Z,83.98
2018-12-11T18:02:33.600Z,85.31
2018-12-11T18:03:10.546Z,84.52
2018-12-11T18:03:47.385Z,85.39
2018-12-11T18:04:24.265Z,85.17
2018-12-11T18:05:01.105Z,84.33
2018-12-11T18:05:38.153Z,85.29
2018-12-11T18:06:14.977Z,85.33
2018-12-11T18:06:51.855Z,85.36
2018-12-11T18:07:28.849Z,84.97
2018-12-11T18:08:05.693Z,85.08
2018-12-11T18:08:42.577Z,84.28
2018-12-11T18:09:19.476Z,84.46
2018-12-11T18:09:56.296Z,85.74
2018-12-11T18:10:33.124Z,85.42
2018-12-11T18:11:09.923Z,84.33
2018-12-11T18:11:46.810Z,84.43
2018-12-11T18:12:23.625Z,84.34
2018-12-11T18:13:00.495Z,85.70
2018-12-11T18:13:37.312Z,84.55
2018-12-11T18:14:14.287Z,84.99
2018-12-11T18:14:51.384Z,85.51
2018-12-11T18:15:28.361Z,84.68
2018-12-11T18:16:05.166Z,85.34
2018-12-11T18:16:42.059Z,85.75
2018-12-11T18:17:18.856Z,85.86
2018-12-11T18:17:57.714Z,85.80
2018-12-11T18:18:34.481Z,85.80
2018-12-11T18:19:11.416Z,84.53
2018-12-11T18:19:48.270Z,85.79
2018-12-11T18:20:25.297Z,84.67
2018-12-11T18:21:02.034Z,84.50
2018-12-11T18:21:38.965Z,84.58
2018-12-11T18:22:15.812Z,85.16
2018-12-11T18:22:52.841Z,85.83
2018-12-11T18:23:29.934Z,85.81
2018-12-11T18:24:06.799Z,84.41
2018-12-11T18:24:43.694Z,85.08
2018-12-11T18:25:20.554Z,85.06
2018-12-11T18:25:57.358Z,84.91
2018-12-11T18:26:34.233Z,84.88
2018-12-11T18:27:11.226Z,85.17
2018-12-11T18:27:48.116Z,85.69
2018-12-11T18:28:24.974Z,85.29
2018-12-11T18:29:01.904Z,85.43
2018-12-11T18:29:38.687Z,84.69
2018-12-11T18:30:15.437Z,84.86
2018-12-11T18:30:52.324Z,84.53
2018-12-11T18:31:29.077Z,84.76
2018-12-11T18:32:05.981Z,85.61
2018-12-11T18:32:44.601Z,85.79
2018-12-11T18:33:21.536Z,85.70
2018-12-11T18:33:58.673Z,84.70
2018-12-11T18:34:39.454Z,85.31
2018-12-11T18:35:18.488Z,85.94
2018-12-11T18:35:55.522Z,84.99
2018-12-11T18:36:32.365Z,84.72
2018-12-11T18:37:09.412Z,85.53
2018-12-11T18:37:46.227Z,84.90
2018-12-11T18:38:23.254Z,85.41
2018-12-11T18:39:00.093Z,85.01
2018-12-11T18:39:36.995Z,85.77
2018-12-11T18:40:14.019Z,85.08
2018-12-11T18:40:50.881Z,84.80
2018-12-11T18:41:27.761Z,85.14
2018-12-11T18:42:04.730Z,85.31
2018-12-11T18:42:41.543Z,86.01
2018-12-11T18:43:19.209Z,84.88
2018-12-11T18:43:56.026Z,85.55
2018-12-11T18:44:32.908Z,86.30
2018-12-11T18:45:10.442Z,86.12
2018-12-11T18:45:47.293Z,84.93
2018-12-11T18:46:24.113Z,85.50
2018-12-11T18:47:00.876Z,85.59
2018-12-11T18:47:37.783Z,85.38
2018-12-11T18:48:14.633Z,84.92
2018-12-11T18:48:51.637Z,85.49
2018-12-11T18:49:28.494Z,85.24
2018-12-11T18:50:05.395Z,86.11
2018-12-11T18:50:42.165Z,86.14
2018-12-11T18:51:19.030Z,85.38
2018-12-11T18:51:55.959Z,85.72
2018-12-11T18:52:33.018Z,85.74
2018-12-11T18:53:09.873Z,84.71
2018-12-11T18:53:46.748Z,85.34
2018-12-11T18:54:23.600Z,85.34
2018-12-11T18:55:00.389Z,85.97
2018-12-11T18:55:37.510Z,85.40
2018-12-11T18:56:14.300Z,85.25
2018-12-11T18:56:51.105Z,85.94
2018-12-11T18:57:27.862Z,85.22
2018-12-11T18:58:04.915Z,85.20
2018-12-11T18:58:42.837Z,84.78
2018-12-11T18:59:19.722Z,85.02
2018-12-11T18:59:56.589Z,84.77
2018-12-11T19:00:33.478Z,85.07
2018-12-11T19:01:10.634Z,85.15
2018-12-11T19:01:47.844Z,84.47
2018-12-11T19:02:24.721Z,85.68
2018-12-11T19:03:01.595Z,85.82
2018-12-11T19:03:38.765Z,85.10
2018-12-11T19:04:15.552Z,85.79
2018-12-11T19:04:52.532Z,84.37
2018-12-11T19:05:29.442Z,84.37
2018-12-11T19:06:06.277Z,84.67
2018-12-11T19:06:43.085Z,85.59
2018-12-11T19:07:19.999Z,85.27
2018-12-11T19:07:56.872Z,85.58
2018-12-11T19:08:33.818Z,85.60
2018-12-11T19:09:10.762Z,84.32
2018-12-11T19:09:47.494Z,84.91
2018-12-11T19:10:24.500Z,84.92
2018-12-11T19:11:01.453Z,84.90
2018-12-11T19:11:38.329Z,84.88
2018-12-11T19:12:15.270Z,84.88
2018-12-11T19:12:52.038Z,84.24
2018-12-11T19:13:28.932Z,85.36
2018-12-11T19:14:05.802Z,84.90
2018-12-11T19:14:42.736Z,85.63
2018-12-11T19:15:19.641Z,85.25
2018-12-11T19:15:56.656Z,84.68
2018-12-11T19:16:33.498Z,84.77
2018-12-11T19:17:10.226Z,85.08
2018-12-11T19:17:47.190Z,85.07
2018-12-11T19:18:24.109Z,84.37
2018-12-11T19:19:01.074Z,85.69
2018-12-11T19:19:37.986Z,85.42
2018-12-11T19:20:14.737Z,85.00
2018-12-11T19:20:51.685Z,84.42
2018-12-11T19:21:28.474Z,85.21
2018-12-11T19:22:05.297Z,84.59
2018-12-11T19:22:42.275Z,85.36
2018-12-11T19:23:42.786Z,84.39
2018-12-11T19:24:31.408Z,85.09
2018-12-11T19:25:10.042Z,85.39
2018-12-11T19:25:47.026Z,85.61
2018-12-11T19:26:23.954Z,85.72
2018-12-11T19:27:00.770Z,84.51
2018-12-11T19:27:37.765Z,84.87
2018-12-11T19:28:14.603Z,85.65
2018-12-11T19:28:51.425Z,85.58
2018-12-11T19:29:28.285Z,84.91
2018-12-11T19:30:05.217Z,84.77
2018-12-11T19:30:42.085Z,84.97
2018-12-11T19:31:18.809Z,85.77
2018-12-11T19:31:55.692Z,85.70
2018-12-11T19:32:32.558Z,86.11
2018-12-11T19:33:09.496Z,85.87
2018-12-11T19:33:46.358Z,84.96
2018-12-11T19:34:23.151Z,84.91
2018-12-11T19:34:59.949Z,84.97
2018-12-11T19:35:36.635Z,86.21
2018-12-11T19:36:13.454Z,86.25
2018-12-11T19:36:50.598Z,85.91
2018-12-11T19:37:27.479Z,86.08
2018-12-11T19:38:04.437Z,85.08
2018-12-11T19:38:41.222Z,85.64
2018-12-11T19:39:18.062Z,85.36
2018-12-11T19:39:54.957Z,84.89
2018-12-11T19:40:31.713Z,85.98
2018-12-11T19:41:08.468Z,85.36
2018-12-11T19:41:45.358Z,85.87
2018-12-11T19:42:22.250Z,84.94
2018-12-11T19:42:59.125Z,86.00
2018-12-11T19:43:36.009Z,85.95
2018-12-11T19:44:12.841Z,85.36
2018-12-11T19:44:49.788Z,86.36
2018-12-11T19:45:26.686Z,86.36
2018-12-11T19:46:03.637Z,86.42
2018-12-11T19:46:40.668Z,85.84
2018-12-11T19:47:17.429Z,85.55
2018-12-11T19:47:54.273Z,85.72
2018-12-11T19:48:31.171Z,85.46
2018-12-11T19:49:08.253Z,86.50
2018-12-11T19:49:45.229Z,85.50
2018-12-11T19:50:22.072Z,85.58
2018-12-11T19:50:58.865Z,85.65
2018-12-11T19:51:35.689Z,86.47
2018-12-11T19:52:12.652Z,86.42
2018-12-11T19:52:49.451Z,85.41
2018-12-11T19:53:26.361Z,86.22
2018-12-11T19:54:03.356Z,86.23
2018-12-11T19:54:40.200Z,86.73
2018-12-11T19:55:17.140Z,85.61
2018-12-11T19:55:53.952Z,85.99
2018-12-11T19:56:31.885Z,85.56
2018-12-11T19:57:08.841Z,86.93
2018-12-11T19:57:45.601Z,86.50
2018-12-11T19:58:23.048Z,85.83
2018-12-11T19:58:59.969Z,86.88
2018-12-11T19:59:36.828Z,86.59
2018-12-11T20:00:13.713Z,86.91
2018-12-11T20:00:50.613Z,86.43
2018-12-11T20:01:27.729Z,87.02
2018-12-11T20:02:04.575Z,85.77
2018-12-11T20:02:41.473Z,86.10
2018-12-11T20:03:18.356Z,85.93
2018-12-11T20:03:55.189Z,86.30
2018-12-11T20:04:31.938Z,86.40
2018-12-11T20:05:09.068Z,86.77
2018-12-11T20:05:46.110Z,86.93
2018-12-11T20:06:22.897Z,86.42
2018-12-11T20:06:59.953Z,86.32
2018-12-11T20:07:36.892Z,85.60
2018-12-11T20:08:13.786Z,85.62
2018-12-11T20:08:50.652Z,86.97
2018-12-11T20:09:27.405Z,86.22
2018-12-11T20:10:08.916Z,86.28
2018-12-11T20:10:48.023Z,85.99
2018-12-11T20:11:25.093Z,86.31
2018-12-11T20:12:01.989Z,86.67
2018-12-11T20:12:38.738Z,85.44
2018-12-11T20:13:15.718Z,86.71
2018-12-11T20:13:52.512Z,85.42
2018-12-11T20:14:29.184Z,85.70
2018-12-11T20:15:07.077Z,85.44
2018-12-11T20:15:43.937Z,86.02
2018-12-11T20:16:20.867Z,85.75
2018-12-11T20:16:57.872Z,86.75
2018-12-11T20:17:34.656Z,85.39
2018-12-11T20:18:13.063Z,85.47
2018-12-11T20:18:50.047Z,85.61
2018-12-11T20:19:26.837Z,86.45
2018-12-11T20:20:03.842Z,85.66
2018-12-11T20:20:40.715Z,86.35
2018-12-11T20:21:17.573Z,86.66
2018-12-11T20:21:54.333Z,86.62
2018-12-11T20:22:31.168Z,85.97
2018-12-11T20:23:07.986Z,86.32
2018-12-11T20:23:45.163Z,86.57
2018-12-11T20:24:21.960Z,86.07
2018-12-11T20:24:58.780Z,86.36
2018-12-11T20:25:35.644Z,85.74
2018-12-11T20:26:12.407Z,86.34
2018-12-11T20:26:50.440Z,85.92
2018-12-11T20:27:27.322Z,86.69
2018-12-11T20:28:04.136Z,85.69
2018-12-11T20:28:42.243Z,85.26
2018-12-11T20:29:19.958Z,86.01
2018-12-11T20:29:56.784Z,85.78
2018-12-11T20:30:34.427Z,85.28
2018-12-11T20:31:11.349Z,86.18
2018-12-11T20:31:48.226Z,85.85
2018-12-11T20:32:25.046Z,85.58
2018-12-11T20:33:01.976Z,86.37
2018-12-11T20:33:39.157Z,86.90
2018-12-11T20:34:15.985Z,86.17
2018-12-11T20:34:52.822Z,87.45
2018-12-11T20:35:29.852Z,86.62
2018-12-11T20:36:06.889Z,86.48
2018-12-11T20:36:44.025Z,87.84
2018-12-11T20:37:21.006Z,87.17
2018-12-11T20:37:57.864Z,87.47
2018-12-11T20:38:34.724Z,86.98
2018-12-11T20:39:11.634Z,86.88
2018-12-11T20:39:48.598Z,87.42
2018-12-11T20:40:25.640Z,87.49
2018-12-11T20:41:02.469Z,88.07
2018-12-11T20:41:39.383Z,87.80
2018-12-11T20:42:16.149Z,87.06
2018-12-11T20:42:53.083Z,87.35
2018-12-11T20:43:30.226Z,88.51
2018-12-11T20:44:07.164Z,88.33
2018-12-11T20:44:44.079Z,87.76
2018-12-11T20:45:21.190Z,88.08
2018-12-11T20:45:58.098Z,88.54
2018-12-11T20:46:34.950Z,88.45
2018-12-11T20:47:11.754Z,87.81
2018-12-11T20:47:48.652Z,89.25
2018-12-11T20:48:25.514Z,88.45
2018-12-11T20:49:02.379Z,88.11
2018-12-11T20:49:39.232Z,89.06
2018-12-11T20:50:16.329Z,88.62
2018-12-11T20:50:53.207Z,89.19
2018-12-11T20:51:30.079Z,87.87
2018-12-11T20:52:07.094Z,88.00
2018-12-11T20:52:43.920Z,88.78
2018-12-11T20:53:20.770Z,89.19
2018-12-11T20:53:57.700Z,89.67
2018-12-11T20:54:34.546Z,88.97
2018-12-11T20:55:11.404Z,88.52
2018-12-11T20:55:48.162Z,88.30
2018-12-11T20:56:24.991Z,89.10
2018-12-11T20:57:01.724Z,88.77
2018-12-11T20:57:38.735Z,89.46
2018-12-11T20:58:15.665Z,89.66
2018-12-11T20:58:52.673Z,89.49
2018-12-11T20:59:29.640Z,88.74
2018-12-11T21:00:07.067Z,89.44
2018-12-11T21:00:43.926Z,88.48
2018-12-11T21:01:20.673Z,89.51
2018-12-11T21:01:57.658Z,90.00
2018-12-11T21:02:34.501Z,89.07
2018-12-11T21:03:11.345Z,89.07
2018-12-11T21:03:48.410Z,89.64
2018-12-11T21:04:25.281Z,89.38
2018-12-11T21:05:02.307Z,90.16
2018-12-11T21:05:39.133Z,88.90
2018-12-11T21:06:15.900Z,89.27
2018-12-11T21:06:52.692Z,90.48
2018-12-11T21:07:29.488Z,89.68
2018-12-11T21:08:06.308Z,90.32
2018-12-11T21:08:43.445Z,90.01
2018-12-11T21:09:21.057Z,89.85
2018-12-11T21:09:57.885Z,90.82
2018-12-11T21:10:34.769Z,90.05
2018-12-11T21:11:11.535Z,89.62
2018-12-11T21:11:48.351Z,90.70
2018-12-11T21:12:25.224Z,90.79
2018-12-11T21:13:02.077Z,90.87
2018-12-11T21:13:38.976Z,91.03
2018-12-11T21:14:15.877Z,91.10
2018-12-11T21:14:52.748Z,90.99
2018-12-11T21:15:29.573Z,90.56
2018-12-11T21:16:10.964Z,91.28
2018-12-11T21:16:45.434Z,90.73
2018-12-11T21:17:22.344Z,91.77
2018-12-11T21:17:59.313Z,90.66
2018-12-11T21:18:36.182Z,91.10
2018-12-11T21:19:13.049Z,91.67
2018-12-11T21:19:49.943Z,91.21
2018-12-11T21:20:26.946Z,91.53
2018-12-11T21:21:03.745Z,91.05
2018-12-11T21:21:40.600Z,91.87
2018-12-11T21:22:18.280Z,91.94
2018-12-11T21:22:55.204Z,90.87
2018-12-11T21:23:31.971Z,90.98
2018-12-11T21:24:08.930Z,91.15
2018-12-11T21:24:45.764Z,91.95
2018-12-11T21:25:22.572Z,91.97
2018-12-11T21:25:59.508Z,91.74
2018-12-11T21:26:36.387Z,91.74
2018-12-11T21:27:13.426Z,90.63
2018-12-11T21:27:50.333Z,91.37
2018-12-11T21:28:27.249Z,91.01
2018-12-11T21:29:04.049Z,91.18
2018-12-11T21:29:40.874Z,90.72
2018-12-11T21:30:17.808Z,90.43
2018-12-11T21:30:54.878Z,91.30
2018-12-11T21:31:31.699Z,90.41
2018-12-11T21:32:08.534Z,91.06
2018-12-11T21:32:45.528Z,90.33
2018-12-11T21:33:23.344Z,90.44
2018-12-11T21:34:00.120Z,91.06
2018-12-11T21:34:37.036Z,90.54
2018-12-11T21:35:13.832Z,90.91
2018-12-11T21:35:50.609Z,90.76
2018-12-11T21:36:27.392Z,90.81
2018-12-11T21:37:05.471Z,90.55
2018-12-11T21:37:42.529Z,90.79
2018-12-11T21:38:19.301Z,90.41
2018-12-11T21:38:56.092Z,90.63
2018-12-11T21:39:33.093Z,91.51
2018-12-11T21:40:10.521Z,91.50
2018-12-11T21:40:47.324Z,91.29
2018-12-11T21:41:24.090Z,90.61
2018-12-11T21:42:01.912Z,91.57
2018-12-11T21:42:38.745Z,91.64
2018-12-11T21:43:15.601Z,91.33
2018-12-11T21:43:52.456Z,90.69
2018-12-11T21:44:29.321Z,90.83
2018-12-11T21:45:06.618Z,91.12
2018-12-11T21:45:43.547Z,92.10
2018-12-11T21:46:20.533Z,92.20
2018-12-11T21:46:58.367Z,91.39
2018-12-11T21:47:35.266Z,91.00
2018-12-11T21:48:12.212Z,90.98
2018-12-11T21:48:49.132Z,92.66
2018-12-11T21:49:25.904Z,91.10
2018-12-11T21:50:02.919Z,92.03
2018-12-11T21:50:39.756Z,91.36
2018-12-11T21:51:16.713Z,91.20
2018-12-11T21:51:53.485Z,91.71
2018-12-11T21:52:30.320Z,91.27
2018-12-11T21:53:07.129Z,91.38
2018-12-11T21:53:43.946Z,91.21
2018-12-11T21:54:20.774Z,91.50
2018-12-11T21:54:57.872Z,92.71